sensor_id;sensor_type;location;lat;lon;timestamp;pressure;altitude;pressure_sealevel;temperature;humidity
60437;BME280;46289;51.992;4.498;2022-11-20T00:02:21;101598.72;;;-2.88;100.00
60437;BME280;46289;51.992;4.498;2022-11-20T00:04:50;101612.84;;;-2.93;100.00
60437;BME280;46289;51.992;4.498;2022-11-20T00:07:20;101609.16;;;-2.97;100.00
60437;BME280;46289;51.992;4.498;2022-11-20T00:09:50;101612.47;;;-2.98;100.00
60437;BME280;46289;51.992;4.498;2022-11-20T00:12:19;101613.13;;;-3.01;100.00
60437;BME280;46289;51.992;4.498;2022-11-20T00:14:51;101604.41;;;-3.03;100.00
60437;BME280;46289;51.992;4.498;2022-11-20T00:17:21;101590.56;;;-3.05;100.00
60437;BME280;46289;51.992;4.498;2022-11-20T00:19:51;101591.88;;;-3.10;100.00
60437;BME280;46289;51.992;4.498;2022-11-20T00:22:21;101591.66;;;-3.13;100.00
60437;BME280;46289;51.992;4.498;2022-11-20T00:24:50;101594.53;;;-3.20;100.00
60437;BME280;46289;51.992;4.498;2022-11-20T00:27:20;101587.34;;;-3.24;100.00
60437;BME280;46289;51.992;4.498;2022-11-20T00:29:52;101588.00;;;-3.26;100.00
60437;BME280;46289;51.992;4.498;2022-11-20T00:32:22;101595.44;;;-3.30;100.00
60437;BME280;46289;51.992;4.498;2022-11-20T00:34:51;101597.25;;;-3.28;100.00
60437;BME280;46289;51.992;4.498;2022-11-20T00:37:21;101590.31;;;-3.30;100.00
60437;BME280;46289;51.992;4.498;2022-11-20T00:39:51;101586.75;;;-3.32;100.00
60437;BME280;46289;51.992;4.498;2022-11-20T00:42:20;101578.16;;;-3.32;100.00
60437;BME280;46289;51.992;4.498;2022-11-20T00:44:52;101576.59;;;-3.30;100.00
60437;BME280;46289;51.992;4.498;2022-11-20T00:47:22;101577.63;;;-3.28;100.00
60437;BME280;46289;51.992;4.498;2022-11-20T00:49:52;101578.88;;;-3.23;100.00
60437;BME280;46289;51.992;4.498;2022-11-20T00:52:21;101580.66;;;-3.22;100.00
60437;BME280;46289;51.992;4.498;2022-11-20T00:54:51;101587.47;;;-3.22;100.00
60437;BME280;46289;51.992;4.498;2022-11-20T00:57:21;101582.22;;;-3.24;100.00
60437;BME280;46289;51.992;4.498;2022-11-20T00:59:53;101580.19;;;-3.28;100.00
60437;BME280;46289;51.992;4.498;2022-11-20T01:02:22;101576.47;;;-3.32;100.00
60437;BME280;46289;51.992;4.498;2022-11-20T01:04:52;101583.03;;;-3.35;100.00
60437;BME280;46289;51.992;4.498;2022-11-20T01:07:21;101579.44;;;-3.37;100.00
60437;BME280;46289;51.992;4.498;2022-11-20T01:09:51;101593.81;;;-3.39;100.00
60437;BME280;46289;51.992;4.498;2022-11-20T01:12:21;101593.81;;;-3.39;100.00
60437;BME280;46289;51.992;4.498;2022-11-20T01:14:53;101594.59;;;-3.40;100.00
60437;BME280;46289;51.992;4.498;2022-11-20T01:17:23;101579.72;;;-3.44;100.00
60437;BME280;46289;51.992;4.498;2022-11-20T01:19:52;101575.13;;;-3.48;100.00
60437;BME280;46289;51.992;4.498;2022-11-20T01:22:22;101565.00;;;-3.47;100.00
60437;BME280;46289;51.992;4.498;2022-11-20T01:24:51;101553.31;;;-3.43;100.00
60437;BME280;46289;51.992;4.498;2022-11-20T01:27:21;101572.28;;;-3.41;100.00
60437;BME280;46289;51.992;4.498;2022-11-20T01:29:53;101573.81;;;-3.43;100.00
60437;BME280;46289;51.992;4.498;2022-11-20T01:32:27;101578.72;;;-3.46;100.00
60437;BME280;46289;51.992;4.498;2022-11-20T01:34:56;101573.34;;;-3.49;100.00
60437;BME280;46289;51.992;4.498;2022-11-20T01:37:26;101577.31;;;-3.53;100.00
60437;BME280;46289;51.992;4.498;2022-11-20T01:39:56;101572.06;;;-3.54;100.00
60437;BME280;46289;51.992;4.498;2022-11-20T01:42:25;101569.25;;;-3.57;100.00
60437;BME280;46289;51.992;4.498;2022-11-20T01:48:10;101566.97;;;-3.65;100.00
60437;BME280;46289;51.992;4.498;2022-11-20T01:50:41;101568.75;;;-3.64;100.00
60437;BME280;46289;51.992;4.498;2022-11-20T01:53:14;101564.16;;;-3.68;100.00
60437;BME280;46289;51.992;4.498;2022-11-20T01:55:49;101563.38;;;-3.67;100.00
60437;BME280;46289;51.992;4.498;2022-11-20T01:58:22;101559.91;;;-3.67;100.00
60437;BME280;46289;51.992;4.498;2022-11-20T02:00:54;101569.16;;;-3.69;100.00
60437;BME280;46289;51.992;4.498;2022-11-20T02:03:27;101575.69;;;-3.73;100.00
60437;BME280;46289;51.992;4.498;2022-11-20T02:06:03;101572.00;;;-3.76;100.00
60437;BME280;46289;51.992;4.498;2022-11-20T02:08:34;101572.63;;;-3.79;100.00
60437;BME280;46289;51.992;4.498;2022-11-20T02:11:05;101570.59;;;-3.83;100.00
60437;BME280;46289;51.992;4.498;2022-11-20T02:13:35;101571.34;;;-3.84;100.00
60437;BME280;46289;51.992;4.498;2022-11-20T02:16:14;101571.22;;;-3.85;100.00
60437;BME280;46289;51.992;4.498;2022-11-20T02:18:47;101570.22;;;-3.87;100.00
60437;BME280;46289;51.992;4.498;2022-11-20T02:21:34;101568.94;;;-3.92;100.00
60437;BME280;46289;51.992;4.498;2022-11-20T02:24:12;101565.34;;;-3.95;100.00
60437;BME280;46289;51.992;4.498;2022-11-20T02:26:47;101564.97;;;-3.99;100.00
60437;BME280;46289;51.992;4.498;2022-11-20T02:29:24;101557.28;;;-3.99;100.00
60437;BME280;46289;51.992;4.498;2022-11-20T02:31:55;101550.13;;;-4.03;100.00
60437;BME280;46289;51.992;4.498;2022-11-20T02:34:27;101557.94;;;-4.02;100.00
60437;BME280;46289;51.992;4.498;2022-11-20T02:36:57;101561.13;;;-4.04;100.00
60437;BME280;46289;51.992;4.498;2022-11-20T02:39:30;101554.47;;;-4.02;100.00
60437;BME280;46289;51.992;4.498;2022-11-20T02:42:01;101556.78;;;-4.05;100.00
60437;BME280;46289;51.992;4.498;2022-11-20T02:44:31;101548.31;;;-4.04;100.00
60437;BME280;46289;51.992;4.498;2022-11-20T02:47:01;101548.31;;;-4.04;100.00
60437;BME280;46289;51.992;4.498;2022-11-20T02:49:31;101540.38;;;-4.07;100.00
60437;BME280;46289;51.992;4.498;2022-11-20T02:52:01;101537.81;;;-4.07;100.00
60437;BME280;46289;51.992;4.498;2022-11-20T02:54:34;101534.09;;;-4.01;100.00
60437;BME280;46289;51.992;4.498;2022-11-20T02:57:03;101528.34;;;-3.98;100.00
60437;BME280;46289;51.992;4.498;2022-11-20T02:59:33;101531.16;;;-3.95;100.00
60437;BME280;46289;51.992;4.498;2022-11-20T03:02:03;101537.53;;;-3.90;100.00
60437;BME280;46289;51.992;4.498;2022-11-20T03:04:33;101530.38;;;-3.94;100.00
60437;BME280;46289;51.992;4.498;2022-11-20T03:07:03;101528.47;;;-3.97;100.00
60437;BME280;46289;51.992;4.498;2022-11-20T03:09:36;101521.41;;;-3.99;100.00
60437;BME280;46289;51.992;4.498;2022-11-20T03:12:06;101498.13;;;-4.02;100.00
60437;BME280;46289;51.992;4.498;2022-11-20T03:14:36;101499.25;;;-3.99;100.00
60437;BME280;46289;51.992;4.498;2022-11-20T03:17:06;101503.47;;;-3.99;100.00
60437;BME280;46289;51.992;4.498;2022-11-20T03:19:36;101509.13;;;-4.03;100.00
60437;BME280;46289;51.992;4.498;2022-11-20T03:22:05;101512.09;;;-4.09;100.00
60437;BME280;46289;51.992;4.498;2022-11-20T03:24:38;101501.47;;;-4.13;100.00
60437;BME280;46289;51.992;4.498;2022-11-20T03:27:08;101496.13;;;-4.16;100.00
60437;BME280;46289;51.992;4.498;2022-11-20T03:29:37;101495.09;;;-4.18;100.00
60437;BME280;46289;51.992;4.498;2022-11-20T03:32:07;101491.78;;;-4.17;100.00
60437;BME280;46289;51.992;4.498;2022-11-20T03:34:36;101495.22;;;-4.17;100.00
60437;BME280;46289;51.992;4.498;2022-11-20T03:37:06;101495.22;;;-4.17;100.00
60437;BME280;46289;51.992;4.498;2022-11-20T03:39:38;101494.34;;;-4.17;100.00
60437;BME280;46289;51.992;4.498;2022-11-20T03:42:08;101490.75;;;-4.19;100.00
60437;BME280;46289;51.992;4.498;2022-11-20T03:44:58;101487.41;;;-4.18;100.00
60437;BME280;46289;51.992;4.498;2022-11-20T03:47:27;101487.63;;;-4.15;100.00
60437;BME280;46289;51.992;4.498;2022-11-20T03:49:57;101493.66;;;-4.15;100.00
60437;BME280;46289;51.992;4.498;2022-11-20T03:52:27;101489.22;;;-4.17;100.00
60437;BME280;46289;51.992;4.498;2022-11-20T03:54:59;101482.94;;;-4.21;100.00
60437;BME280;46289;51.992;4.498;2022-11-20T03:57:28;101483.59;;;-4.23;100.00
60437;BME280;46289;51.992;4.498;2022-11-20T03:59:59;101475.78;;;-4.25;100.00
60437;BME280;46289;51.992;4.498;2022-11-20T04:02:28;101464.75;;;-4.24;100.00
60437;BME280;46289;51.992;4.498;2022-11-20T04:04:58;101458.22;;;-4.20;100.00
60437;BME280;46289;51.992;4.498;2022-11-20T04:07:28;101462.69;;;-4.18;100.00
60437;BME280;46289;51.992;4.498;2022-11-20T04:10:00;101450.22;;;-4.13;100.00
60437;BME280;46289;51.992;4.498;2022-11-20T04:12:32;101450.47;;;-4.10;100.00
60437;BME280;46289;51.992;4.498;2022-11-20T04:15:01;101444.59;;;-4.09;100.00
60437;BME280;46289;51.992;4.498;2022-11-20T04:17:31;101441.00;;;-4.11;100.00
60437;BME280;46289;51.992;4.498;2022-11-20T04:20:02;101435.09;;;-4.10;100.00
60437;BME280;46289;51.992;4.498;2022-11-20T04:22:31;101435.34;;;-4.07;100.00
60437;BME280;46289;51.992;4.498;2022-11-20T04:25:07;101432.78;;;-4.07;100.00
60437;BME280;46289;51.992;4.498;2022-11-20T04:27:37;101432.28;;;-4.03;100.00
60437;BME280;46289;51.992;4.498;2022-11-20T04:30:07;101436.75;;;-4.01;100.00
60437;BME280;46289;51.992;4.498;2022-11-20T04:32:37;101445.44;;;-3.99;100.00
60437;BME280;46289;51.992;4.498;2022-11-20T04:35:07;101444.56;;;-3.99;100.00
60437;BME280;46289;51.992;4.498;2022-11-20T04:37:37;101439.81;;;-3.95;100.00
60437;BME280;46289;51.992;4.498;2022-11-20T04:40:10;101438.91;;;-3.95;100.00
60437;BME280;46289;51.992;4.498;2022-11-20T04:42:40;101439.69;;;-3.96;100.00
60437;BME280;46289;51.992;4.498;2022-11-20T04:45:10;101444.81;;;-3.96;100.00
60437;BME280;46289;51.992;4.498;2022-11-20T04:47:39;101448.00;;;-3.99;100.00
60437;BME280;46289;51.992;4.498;2022-11-20T04:50:09;101442.75;;;-4.00;100.00
60437;BME280;46289;51.992;4.498;2022-11-20T04:52:39;101439.19;;;-4.02;100.00
60437;BME280;46289;51.992;4.498;2022-11-20T04:55:11;101435.59;;;-4.04;100.00
60437;BME280;46289;51.992;4.498;2022-11-20T04:57:41;101434.06;;;-4.02;100.00
60437;BME280;46289;51.992;4.498;2022-11-20T05:00:12;101437.41;;;-4.03;100.00
60437;BME280;46289;51.992;4.498;2022-11-20T05:02:42;101432.28;;;-4.03;100.00
60437;BME280;46289;51.992;4.498;2022-11-20T05:05:11;101428.69;;;-4.05;100.00
60437;BME280;46289;51.992;4.498;2022-11-20T05:07:41;101436.38;;;-4.05;100.00
60437;BME280;46289;51.992;4.498;2022-11-20T05:10:13;101432.03;;;-4.06;100.00
60437;BME280;46289;51.992;4.498;2022-11-20T05:12:43;101447.41;;;-4.06;100.00
60437;BME280;46289;51.992;4.498;2022-11-20T05:15:13;101438.56;;;-4.10;100.00
60437;BME280;46289;51.992;4.498;2022-11-20T05:17:47;101451.25;;;-4.11;100.00
60437;BME280;46289;51.992;4.498;2022-11-20T05:20:16;101452.66;;;-4.15;100.00
60437;BME280;46289;51.992;4.498;2022-11-20T05:22:46;101450.00;;;-4.16;100.00
60437;BME280;46289;51.992;4.498;2022-11-20T05:25:19;101449.78;;;-4.19;100.00
60437;BME280;46289;51.992;4.498;2022-11-20T05:27:48;101443.50;;;-4.23;100.00
60437;BME280;46289;51.992;4.498;2022-11-20T05:30:18;101441.31;;;-4.18;100.00
60437;BME280;46289;51.992;4.498;2022-11-20T05:32:47;101439.84;;;-4.15;100.00
60437;BME280;46289;51.992;4.498;2022-11-20T05:35:17;101439.97;;;-4.13;100.00
60437;BME280;46289;51.992;4.498;2022-11-20T05:37:47;101439.09;;;-4.14;100.00
60437;BME280;46289;51.992;4.498;2022-11-20T05:40:19;101434.75;;;-4.15;100.00
60437;BME280;46289;51.992;4.498;2022-11-20T05:42:49;101434.75;;;-4.15;100.00
60437;BME280;46289;51.992;4.498;2022-11-20T05:45:18;101421.28;;;-4.12;100.00
60437;BME280;46289;51.992;4.498;2022-11-20T05:47:48;101416.41;;;-4.09;100.00
60437;BME280;46289;51.992;4.498;2022-11-20T05:50:18;101410.63;;;-4.07;100.00
60437;BME280;46289;51.992;4.498;2022-11-20T05:52:48;101411.53;;;-4.06;100.00
60437;BME280;46289;51.992;4.498;2022-11-20T05:55:20;101408.97;;;-4.06;100.00
60437;BME280;46289;51.992;4.498;2022-11-20T05:57:50;101417.56;;;-4.06;100.00
60437;BME280;46289;51.992;4.498;2022-11-20T06:00:21;101404.63;;;-4.07;100.00
60437;BME280;46289;51.992;4.498;2022-11-20T06:02:51;101395.25;;;-4.07;100.00
60437;BME280;46289;51.992;4.498;2022-11-20T06:05:20;101391.94;;;-4.06;100.00
60437;BME280;46289;51.992;4.498;2022-11-20T06:07:50;101393.72;;;-4.05;100.00
60437;BME280;46289;51.992;4.498;2022-11-20T06:10:22;101390.50;;;-4.02;100.00
60437;BME280;46289;51.992;4.498;2022-11-20T06:12:52;101382.94;;;-4.01;100.00
60437;BME280;46289;51.992;4.498;2022-11-20T06:15:21;101383.31;;;-3.96;100.00
60437;BME280;46289;51.992;4.498;2022-11-20T06:17:52;101379.97;;;-3.95;100.00
60437;BME280;46289;51.992;4.498;2022-11-20T06:20:22;101380.09;;;-3.93;100.00
60437;BME280;46289;51.992;4.498;2022-11-20T06:22:51;101379.31;;;-3.92;100.00
60437;BME280;46289;51.992;4.498;2022-11-20T06:25:23;101380.34;;;-3.90;100.00
60437;BME280;46289;51.992;4.498;2022-11-20T06:27:53;101373.78;;;-3.87;100.00
60437;BME280;46289;51.992;4.498;2022-11-20T06:30:23;101376.59;;;-3.84;100.00
60437;BME280;46289;51.992;4.498;2022-11-20T06:32:52;101380.16;;;-3.82;100.00
60437;BME280;46289;51.992;4.498;2022-11-20T06:35:22;101373.75;;;-3.77;100.00
60437;BME280;46289;51.992;4.498;2022-11-20T06:37:52;101375.88;;;-3.71;100.00
60437;BME280;46289;51.992;4.498;2022-11-20T06:40:24;101375.22;;;-3.69;100.00
60437;BME280;46289;51.992;4.498;2022-11-20T06:42:54;101380.06;;;-3.62;100.00
60437;BME280;46289;51.992;4.498;2022-11-20T06:45:23;101374.41;;;-3.57;100.00
60437;BME280;46289;51.992;4.498;2022-11-20T06:47:53;101372.19;;;-3.53;100.00
60437;BME280;46289;51.992;4.498;2022-11-20T06:50:23;101363.84;;;-3.50;100.00
60437;BME280;46289;51.992;4.498;2022-11-20T06:52:52;101372.56;;;-3.48;100.00
60437;BME280;46289;51.992;4.498;2022-11-20T06:55:24;101367.13;;;-3.41;100.00
60437;BME280;46289;51.992;4.498;2022-11-20T06:57:54;101365.63;;;-3.27;100.00
60437;BME280;46289;51.992;4.498;2022-11-20T07:00:24;101358.50;;;-3.20;100.00
60437;BME280;46289;51.992;4.498;2022-11-20T07:02:54;101352.38;;;-3.10;100.00
60437;BME280;46289;51.992;4.498;2022-11-20T07:05:23;101349.59;;;-3.02;100.00
60437;BME280;46289;51.992;4.498;2022-11-20T07:07:55;101361.66;;;-3.01;100.00
60437;BME280;46289;51.992;4.498;2022-11-20T07:10:27;101350.59;;;-3.00;100.00
60437;BME280;46289;51.992;4.498;2022-11-20T07:12:57;101348.16;;;-2.98;100.00
60437;BME280;46289;51.992;4.498;2022-11-20T07:15:26;101350.06;;;-2.96;100.00
60437;BME280;46289;51.992;4.498;2022-11-20T07:17:58;101353.09;;;-2.89;100.00
60437;BME280;46289;51.992;4.498;2022-11-20T07:20:28;101360.22;;;-2.85;100.00
60437;BME280;46289;51.992;4.498;2022-11-20T07:22:58;101363.81;;;-2.83;100.00
60437;BME280;46289;51.992;4.498;2022-11-20T07:25:30;101363.03;;;-2.82;100.00
60437;BME280;46289;51.992;4.498;2022-11-20T07:28:00;101357.22;;;-2.80;100.00
60437;BME280;46289;51.992;4.498;2022-11-20T07:30:30;101356.44;;;-2.79;100.00
60437;BME280;46289;51.992;4.498;2022-11-20T07:33:00;101360.13;;;-2.75;100.00
60437;BME280;46289;51.992;4.498;2022-11-20T07:35:29;101355.13;;;-2.74;100.00
60437;BME280;46289;51.992;4.498;2022-11-20T07:37:59;101351.22;;;-2.69;100.00
60437;BME280;46289;51.992;4.498;2022-11-20T07:40:31;101359.25;;;-2.64;100.00
60437;BME280;46289;51.992;4.498;2022-11-20T07:43:01;101359.50;;;-2.61;100.00
60437;BME280;46289;51.992;4.498;2022-11-20T07:45:31;101362.41;;;-2.56;100.00
60437;BME280;46289;51.992;4.498;2022-11-20T07:48:00;101360.16;;;-2.52;100.00
60437;BME280;46289;51.992;4.498;2022-11-20T07:50:30;101360.50;;;-2.47;100.00
60437;BME280;46289;51.992;4.498;2022-11-20T07:53:01;101368.66;;;-2.41;100.00
60437;BME280;46289;51.992;4.498;2022-11-20T07:55:34;101366.41;;;-2.37;100.00
60437;BME280;46289;51.992;4.498;2022-11-20T07:58:04;101366.88;;;-2.31;100.00
60437;BME280;46289;51.992;4.498;2022-11-20T08:00:33;101363.06;;;-2.24;100.00
60437;BME280;46289;51.992;4.498;2022-11-20T08:03:03;101357.59;;;-2.17;100.00
60437;BME280;46289;51.992;4.498;2022-11-20T08:05:33;101357.25;;;-2.10;100.00
60437;BME280;46289;51.992;4.498;2022-11-20T08:08:04;101346.47;;;-2.04;100.00
60437;BME280;46289;51.992;4.498;2022-11-20T08:10:36;101341.78;;;-1.98;100.00
60437;BME280;46289;51.992;4.498;2022-11-20T08:13:06;101342.44;;;-1.89;100.00
60437;BME280;46289;51.992;4.498;2022-11-20T08:15:49;101339.28;;;-1.85;100.00
60437;BME280;46289;51.992;4.498;2022-11-20T08:18:19;101337.25;;;-1.77;100.00
60437;BME280;46289;51.992;4.498;2022-11-20T08:20:57;101326.19;;;-1.76;100.00
60437;BME280;46289;51.992;4.498;2022-11-20T08:23:27;101331.06;;;-1.68;100.00
60437;BME280;46289;51.992;4.498;2022-11-20T08:25:59;101336.75;;;-1.60;100.00
60437;BME280;46289;51.992;4.498;2022-11-20T08:28:29;101334.72;;;-1.52;100.00
60437;BME280;46289;51.992;4.498;2022-11-20T08:30:59;101338.38;;;-1.49;100.00
60437;BME280;46289;51.992;4.498;2022-11-20T08:33:29;101342.28;;;-1.42;100.00
60437;BME280;46289;51.992;4.498;2022-11-20T08:36:00;101324.47;;;-1.39;100.00
60437;BME280;46289;51.992;4.498;2022-11-20T08:38:30;101341.34;;;-1.31;100.00
60437;BME280;46289;51.992;4.498;2022-11-20T08:41:04;101340.75;;;-1.27;100.00
60437;BME280;46289;51.992;4.498;2022-11-20T08:43:46;101331.47;;;-1.25;100.00
60437;BME280;46289;51.992;4.498;2022-11-20T08:46:16;101331.88;;;-1.19;100.00
60437;BME280;46289;51.992;4.498;2022-11-20T08:48:45;101342.38;;;-1.16;100.00
60437;BME280;46289;51.992;4.498;2022-11-20T08:51:15;101338.53;;;-1.09;100.00
60437;BME280;46289;51.992;4.498;2022-11-20T08:53:45;101338.91;;;-1.03;100.00
60437;BME280;46289;51.992;4.498;2022-11-20T08:56:18;101337.97;;;-0.92;100.00
60437;BME280;46289;51.992;4.498;2022-11-20T08:58:49;101332.72;;;-0.93;100.00
60437;BME280;46289;51.992;4.498;2022-11-20T09:01:39;101329.53;;;-0.89;100.00
60437;BME280;46289;51.992;4.498;2022-11-20T09:04:09;101318.47;;;-0.88;100.00
60437;BME280;46289;51.992;4.498;2022-11-20T09:06:41;101308.75;;;-0.79;100.00
60437;BME280;46289;51.992;4.498;2022-11-20T09:09:10;101308.28;;;-0.74;100.00
60437;BME280;46289;51.992;4.498;2022-11-20T09:11:43;101317.00;;;-0.72;100.00
60437;BME280;46289;51.992;4.498;2022-11-20T09:14:12;101314.94;;;-0.64;100.00
60437;BME280;46289;51.992;4.498;2022-11-20T09:16:44;101309.19;;;-0.60;100.00
60437;BME280;46289;51.992;4.498;2022-11-20T09:19:13;101307.69;;;-0.56;100.00
60437;BME280;46289;51.992;4.498;2022-11-20T09:22:01;101300.56;;;-0.47;100.00
60437;BME280;46289;51.992;4.498;2022-11-20T09:24:31;101290.06;;;-0.37;100.00
60437;BME280;46289;51.992;4.498;2022-11-20T09:27:06;101292.22;;;-0.30;100.00
60437;BME280;46289;51.992;4.498;2022-11-20T09:29:36;101287.25;;;-0.27;100.00
60437;BME280;46289;51.992;4.498;2022-11-20T09:32:06;101278.63;;;-0.14;100.00
60437;BME280;46289;51.992;4.498;2022-11-20T09:34:36;101273.66;;;-0.11;100.00
60437;BME280;46289;51.992;4.498;2022-11-20T09:37:06;101265.94;;;-0.11;100.00
60437;BME280;46289;51.992;4.498;2022-11-20T09:39:36;101261.06;;;-0.07;100.00
60437;BME280;46289;51.992;4.498;2022-11-20T09:42:20;101256.97;;;-0.03;100.00
60437;BME280;46289;51.992;4.498;2022-11-20T09:47:55;101229.06;;;0.05;100.00
60437;BME280;46289;51.992;4.498;2022-11-20T09:50:31;101237.06;;;0.09;100.00
60437;BME280;46289;51.992;4.498;2022-11-20T09:53:12;101239.22;;;0.16;100.00
60437;BME280;46289;51.992;4.498;2022-11-20T09:55:43;101231.06;;;0.23;100.00
60437;BME280;46289;51.992;4.498;2022-11-20T09:58:26;101231.06;;;0.23;100.00
60437;BME280;46289;51.992;4.498;2022-11-20T10:01:03;101225.09;;;0.24;100.00
60437;BME280;46289;51.992;4.498;2022-11-20T10:03:40;101215.78;;;0.26;100.00
60437;BME280;46289;51.992;4.498;2022-11-20T10:06:15;101208.41;;;0.32;100.00
60437;BME280;46289;51.992;4.498;2022-11-20T10:08:50;101205.81;;;0.32;100.00
60437;BME280;46289;51.992;4.498;2022-11-20T10:11:32;101194.88;;;0.37;100.00
60437;BME280;46289;51.992;4.498;2022-11-20T10:14:16;101187.34;;;0.40;100.00
60437;BME280;46289;51.992;4.498;2022-11-20T10:16:55;101177.38;;;0.46;100.00
60437;BME280;46289;51.992;4.498;2022-11-20T10:19:54;101179.16;;;0.47;100.00
60437;BME280;46289;51.992;4.498;2022-11-20T10:22:35;101165.63;;;0.51;100.00
60437;BME280;46289;51.992;4.498;2022-11-20T10:25:13;101157.81;;;0.64;100.00
60437;BME280;46289;51.992;4.498;2022-11-20T10:28:07;101148.91;;;0.59;100.00
60437;BME280;46289;51.992;4.498;2022-11-20T10:30:45;101154.06;;;0.59;100.00
60437;BME280;46289;51.992;4.498;2022-11-20T10:33:17;101143.75;;;0.59;100.00
60437;BME280;46289;51.992;4.498;2022-11-20T10:35:52;101148.28;;;0.63;100.00
60437;BME280;46289;51.992;4.498;2022-11-20T10:38:25;101140.63;;;0.64;100.00
60437;BME280;46289;51.992;4.498;2022-11-20T10:40:59;101131.09;;;0.63;100.00
60437;BME280;46289;51.992;4.498;2022-11-20T10:43:43;101138.03;;;0.64;100.00
60437;BME280;46289;51.992;4.498;2022-11-20T10:46:19;101132.34;;;0.70;100.00
60437;BME280;46289;51.992;4.498;2022-11-20T10:48:49;101132.34;;;0.70;100.00
60437;BME280;46289;51.992;4.498;2022-11-20T10:51:31;101137.75;;;0.75;100.00
60437;BME280;46289;51.992;4.498;2022-11-20T10:54:12;101122.53;;;0.79;100.00
60437;BME280;46289;51.992;4.498;2022-11-20T10:56:50;101122.72;;;0.82;100.00
60437;BME280;46289;51.992;4.498;2022-11-20T10:59:41;101111.03;;;0.89;100.00
60437;BME280;46289;51.992;4.498;2022-11-20T11:02:21;101102.91;;;0.97;100.00
60437;BME280;46289;51.992;4.498;2022-11-20T11:04:52;101094.84;;;1.08;100.00
60437;BME280;46289;51.992;4.498;2022-11-20T11:07:26;101087.25;;;1.11;100.00
60437;BME280;46289;51.992;4.498;2022-11-20T11:09:57;101088.22;;;1.13;100.00
60437;BME280;46289;51.992;4.498;2022-11-20T11:12:28;101086.78;;;1.18;100.00
60437;BME280;46289;51.992;4.498;2022-11-20T11:14:58;101086.88;;;1.19;100.00
60437;BME280;46289;51.992;4.498;2022-11-20T11:17:34;101064.69;;;1.23;100.00
60437;BME280;46289;51.992;4.498;2022-11-20T11:20:06;101060.88;;;1.16;100.00
60437;BME280;46289;51.992;4.498;2022-11-20T11:22:45;101060.41;;;1.23;100.00
60437;BME280;46289;51.992;4.498;2022-11-20T11:25:25;101052.41;;;1.35;100.00
60437;BME280;46289;51.992;4.498;2022-11-20T11:27:58;101041.28;;;1.36;100.00
60437;BME280;46289;51.992;4.498;2022-11-20T11:30:30;101023.09;;;1.35;100.00
60437;BME280;46289;51.992;4.498;2022-11-20T11:33:20;101017.03;;;1.34;100.00
60437;BME280;46289;51.992;4.498;2022-11-20T11:35:51;101004.44;;;1.40;100.00
60437;BME280;46289;51.992;4.498;2022-11-20T11:38:27;100995.25;;;1.45;100.00
60437;BME280;46289;51.992;4.498;2022-11-20T11:40:57;100983.22;;;1.46;100.00
60437;BME280;46289;51.992;4.498;2022-11-20T11:43:31;100971.25;;;1.48;100.00
60437;BME280;46289;51.992;4.498;2022-11-20T11:46:30;100951.34;;;1.63;100.00
60437;BME280;46289;51.992;4.498;2022-11-20T11:49:21;100951.59;;;1.68;100.00
60437;BME280;46289;51.992;4.498;2022-11-20T11:52:27;100952.19;;;1.80;100.00
60437;BME280;46289;51.992;4.498;2022-11-20T11:55:18;100955.75;;;1.82;100.00
60437;BME280;46289;51.992;4.498;2022-11-20T11:58:27;100958.34;;;1.82;100.00
60437;BME280;46289;51.992;4.498;2022-11-20T12:01:33;100962.69;;;1.83;100.00
60437;BME280;46289;51.992;4.498;2022-11-20T12:04:24;100964.06;;;1.92;100.00
60437;BME280;46289;51.992;4.498;2022-11-20T12:10:22;100946.41;;;2.02;100.00
60437;BME280;46289;51.992;4.498;2022-11-20T12:13:24;100943.06;;;2.04;100.00
60437;BME280;46289;51.992;4.498;2022-11-20T12:16:19;100943.34;;;2.10;100.00
60437;BME280;46289;51.992;4.498;2022-11-20T12:19:04;100934.91;;;2.14;100.00
60437;BME280;46289;51.992;4.498;2022-11-20T12:22:00;100940.53;;;2.23;100.00
60437;BME280;46289;51.992;4.498;2022-11-20T12:25:10;100941.19;;;2.19;100.00
60437;BME280;46289;51.992;4.498;2022-11-20T12:28:54;100930.91;;;2.21;100.00
60437;BME280;46289;51.992;4.498;2022-11-20T12:32:11;100912.94;;;2.24;100.00
60437;BME280;46289;51.992;4.498;2022-11-20T12:37:59;100905.34;;;2.27;100.00
60437;BME280;46289;51.992;4.498;2022-11-20T12:41:09;100892.53;;;2.30;100.00
60437;BME280;46289;51.992;4.498;2022-11-20T12:51:07;100873.59;;;2.31;100.00
60437;BME280;46289;51.992;4.498;2022-11-20T12:54:11;100867.84;;;2.37;100.00
60437;BME280;46289;51.992;4.498;2022-11-20T12:57:33;100858.75;;;2.27;100.00
60437;BME280;46289;51.992;4.498;2022-11-20T13:03:48;100841.59;;;2.29;100.00
60437;BME280;46289;51.992;4.498;2022-11-20T13:06:50;100839.22;;;2.34;100.00
60437;BME280;46289;51.992;4.498;2022-11-20T13:10:16;100836.56;;;2.32;100.00
60437;BME280;46289;51.992;4.498;2022-11-20T13:13:33;100836.84;;;2.38;100.00
60437;BME280;46289;51.992;4.498;2022-11-20T13:16:51;100836.25;;;2.44;100.00
60437;BME280;46289;51.992;4.498;2022-11-20T13:19:54;100827.38;;;2.39;100.00
60437;BME280;46289;51.992;4.498;2022-11-20T13:22:41;100829.28;;;2.43;100.00
60437;BME280;46289;51.992;4.498;2022-11-20T13:25:22;100815.41;;;2.41;100.00
60437;BME280;46289;51.992;4.498;2022-11-20T13:27:53;100818.13;;;2.44;100.00
60437;BME280;46289;51.992;4.498;2022-11-20T13:30:24;100812.94;;;2.44;100.00
60437;BME280;46289;51.992;4.498;2022-11-20T13:32:56;100816.28;;;2.41;100.00
60437;BME280;46289;51.992;4.498;2022-11-20T13:35:30;100810.97;;;2.38;100.00
60437;BME280;46289;51.992;4.498;2022-11-20T13:38:07;100802.66;;;2.45;100.00
60437;BME280;46289;51.992;4.498;2022-11-20T13:40:39;100795.66;;;2.43;100.00
60437;BME280;46289;51.992;4.498;2022-11-20T13:43:23;100784.59;;;2.27;100.00
60437;BME280;46289;51.992;4.498;2022-11-20T13:46:10;100793.66;;;2.37;100.00